createdAt,value
2023-06-17T00:03:52.193Z,84.16
2023-06-17T00:08:55.950Z,84.85
2023-06-17T00:14:02.029Z,85.31
2023-06-17T00:19:05.480Z,86.02
2023-06-17T00:24:08.475Z,86.43
2023-06-17T00:29:12.636Z,86.75
2023-06-17T00:34:15.665Z,87.14
2023-06-17T00:39:18.513Z,87.32
2023-06-17T00:44:23.436Z,87.49
2023-06-17T00:49:34.935Z,87.61
2023-06-17T00:54:38.901Z,87.08
2023-06-17T00:59:44.994Z,87.15
2023-06-17T01:04:48.500Z,86.68
2023-06-17T01:09:56.591Z,86.61
2023-06-17T01:15:02.251Z,86.64
2023-06-17T01:20:07.189Z,87.06
2023-06-17T01:25:14.226Z,86.99
2023-06-17T01:30:17.685Z,86.54
2023-06-17T01:35:20.724Z,87.80
2023-06-17T01:40:25.809Z,87.36
2023-06-17T01:45:29.054Z,88.17
2023-06-17T01:50:31.820Z,88.66
2023-06-17T01:55:36.133Z,88.90
2023-06-17T02:00:38.944Z,88.98
2023-06-17T02:05:41.797Z,88.92
2023-06-17T02:10:45.972Z,88.27
2023-06-17T02:15:48.805Z,87.38
2023-06-17T02:20:51.848Z,87.99
2023-06-17T02:25:57.654Z,87.82
2023-06-17T02:31:01.621Z,87.86
2023-06-17T02:36:04.792Z,87.63
2023-06-17T02:41:09.356Z,87.15
2023-06-17T02:46:13.609Z,87.83
2023-06-17T02:51:16.811Z,88.02
2023-06-17T02:56:21.234Z,88.01
2023-06-17T03:01:24.514Z,87.79
2023-06-17T03:06:27.681Z,87.48
2023-06-17T03:11:32.031Z,87.85
2023-06-17T03:16:41.662Z,88.49
2023-06-17T03:21:46.201Z,88.24
2023-06-17T03:26:51.010Z,88.09
2023-06-17T03:31:57.944Z,87.56
2023-06-17T03:37:02.750Z,87.21
2023-06-17T03:42:07.737Z,86.91
2023-06-17T03:47:11.833Z,86.73
2023-06-17T03:52:15.954Z,86.88
2023-06-17T03:57:20.191Z,87.37
2023-06-17T04:02:23.652Z,87.35
2023-06-17T04:07:28.536Z,86.71
2023-06-17T04:12:32.671Z,86.25
2023-06-17T04:17:38.085Z,86.00
2023-06-17T04:22:41.745Z,86.19
2023-06-17T04:27:46.695Z,87.13
2023-06-17T04:32:51.283Z,87.17
2023-06-17T04:37:55.664Z,87.34
2023-06-17T04:43:00.792Z,87.55
2023-06-17T04:48:06.912Z,87.14
2023-06-17T04:53:11.355Z,86.84
2023-06-17T04:58:16.135Z,86.70
2023-06-17T05:03:22.336Z,87.02
2023-06-17T05:08:27.421Z,87.45
2023-06-17T05:13:31.838Z,87.93
2023-06-17T05:18:35.556Z,88.19
2023-06-17T05:23:39.053Z,88.27
2023-06-17T05:28:44.769Z,87.86
2023-06-17T05:33:47.761Z,86.62
2023-06-17T05:38:50.698Z,85.91
2023-06-17T05:43:55.099Z,85.92
2023-06-17T05:48:58.589Z,85.73
2023-06-17T05:54:01.523Z,84.77
2023-06-17T05:59:06.836Z,83.29
2023-06-17T06:04:15.294Z,83.25
2023-06-17T06:09:18.254Z,82.74
2023-06-17T06:14:22.643Z,82.68
2023-06-17T06:19:26.940Z,81.10
2023-06-17T06:24:29.772Z,81.23
2023-06-17T06:29:34.094Z,80.55
2023-06-17T06:34:36.995Z,78.92
2023-06-17T06:39:40.251Z,77.22
2023-06-17T06:44:45.307Z,76.58
2023-06-17T06:49:52.924Z,76.96
2023-06-17T06:54:56.552Z,78.16
2023-06-17T07:00:01.006Z,78.66
2023-06-17T07:05:05.156Z,80.06
2023-06-17T07:10:14.778Z,80.56
2023-06-17T07:15:18.990Z,80.68
2023-06-17T07:20:24.434Z,80.79
2023-06-17T07:25:27.442Z,81.08
2023-06-17T07:30:31.790Z,81.13
2023-06-17T07:35:34.982Z,80.84
2023-06-17T07:40:38.624Z,79.05
2023-06-17T07:45:42.858Z,77.87
2023-06-17T07:50:46.038Z,77.67
2023-06-17T07:55:49.011Z,76.08
2023-06-17T08:00:53.371Z,74.98
2023-06-17T08:05:56.457Z,73.04
2023-06-17T08:10:59.240Z,72.42
2023-06-17T08:16:03.796Z,70.30
2023-06-17T08:21:06.925Z,70.01
2023-06-17T08:26:09.715Z,70.61
2023-06-17T08:31:14.013Z,70.71
2023-06-17T08:36:17.052Z,71.42
2023-06-17T08:41:20.128Z,69.25
2023-06-17T08:46:25.965Z,68.99
2023-06-17T08:51:29.517Z,67.43
2023-06-17T08:56:32.341Z,66.15
2023-06-17T09:01:37.421Z,65.93
2023-06-17T09:06:41.004Z,63.90
2023-06-17T09:11:52.416Z,65.78
2023-06-17T09:16:57.269Z,63.49
2023-06-17T09:22:06.985Z,61.92
2023-06-17T09:27:16.898Z,61.82
2023-06-17T09:32:21.198Z,59.79
2023-06-17T09:37:24.027Z,57.39
2023-06-17T09:42:31.936Z,58.95
2023-06-17T09:47:38.576Z,59.02
2023-06-17T09:52:41.528Z,56.48
2023-06-17T09:57:44.810Z,56.97
2023-06-17T10:02:48.988Z,57.79
2023-06-17T10:07:53.529Z,58.69
2023-06-17T10:12:57.642Z,56.85
2023-06-17T10:18:02.767Z,54.52
2023-06-17T10:23:06.095Z,54.75
2023-06-17T10:28:09.130Z,54.63
2023-06-17T10:33:13.853Z,56.20
2023-06-17T10:38:29.748Z,54.37
2023-06-17T10:43:38.168Z,51.36
2023-06-17T10:48:42.515Z,52.65
2023-06-17T10:53:49.912Z,50.83
2023-06-17T10:58:53.054Z,50.25
2023-06-17T11:04:00.727Z,51.88
2023-06-17T11:09:05.836Z,52.60
2023-06-17T11:14:08.637Z,52.29
2023-06-17T11:19:14.736Z,51.64
2023-06-17T11:24:17.614Z,50.72
2023-06-17T11:29:20.763Z,52.18
2023-06-17T11:34:25.014Z,49.60
2023-06-17T11:39:30.617Z,47.60
2023-06-17T11:44:34.441Z,50.63
2023-06-17T11:49:42.664Z,54.47
2023-06-17T11:54:49.717Z,58.05
2023-06-17T11:59:53.364Z,55.27
2023-06-17T12:05:02.331Z,52.27
2023-06-17T12:10:05.745Z,50.53
2023-06-17T12:20:19.375Z,45.96
2023-06-17T12:25:23.253Z,45.67
2023-06-17T12:30:26.267Z,44.30
2023-06-17T12:35:30.859Z,41.82
2023-06-17T12:40:35.676Z,39.50
2023-06-17T12:45:41.983Z,39.08
2023-06-17T12:50:47.457Z,38.51
2023-06-17T12:55:50.395Z,38.75
2023-06-17T13:00:53.257Z,39.31
2023-06-17T13:05:57.537Z,36.44
2023-06-17T13:11:00.677Z,36.49
2023-06-17T13:16:03.904Z,34.63
2023-06-17T13:21:08.373Z,36.89
2023-06-17T13:26:11.446Z,38.76
2023-06-17T13:31:14.339Z,37.99
2023-06-17T13:36:18.692Z,37.97
2023-06-17T13:41:22.142Z,37.03
2023-06-17T13:46:25.046Z,36.00
2023-06-17T13:51:29.379Z,34.68
2023-06-17T13:56:32.245Z,33.72
2023-06-17T14:01:35.038Z,32.59
2023-06-17T14:06:39.784Z,32.14
2023-06-17T14:11:42.821Z,32.90
2023-06-17T14:16:45.779Z,30.53
2023-06-17T14:21:57.011Z,30.81
2023-06-17T14:27:30.876Z,28.57
2023-06-17T14:32:33.824Z,22.25
2023-06-17T14:37:38.430Z,13.58
2023-06-17T14:42:43.705Z,10.46
2023-06-17T14:47:46.803Z,9.34
2023-06-17T14:52:51.400Z,8.42
2023-06-17T14:57:54.305Z,8.54
2023-06-17T15:03:00.990Z,13.09
2023-06-17T15:08:06.048Z,18.58
2023-06-17T15:13:09.207Z,18.90
2023-06-17T15:18:12.222Z,19.27
2023-06-17T15:23:17.036Z,25.62
2023-06-17T15:28:19.979Z,23.71
2023-06-17T15:33:24.004Z,13.25
2023-06-17T15:38:28.203Z,10.71
2023-06-17T15:43:31.243Z,8.20
2023-06-17T15:48:35.527Z,8.90
2023-06-17T15:53:39.797Z,13.28
2023-06-17T15:58:42.718Z,23.96
2023-06-17T16:03:45.890Z,17.17
2023-06-17T16:08:50.105Z,11.24
2023-06-17T16:13:52.984Z,10.78
2023-06-17T16:18:55.961Z,13.07
2023-06-17T16:24:00.366Z,19.09
2023-06-17T16:29:03.246Z,16.21
2023-06-17T16:34:06.261Z,20.67
2023-06-17T16:39:11.100Z,24.95
2023-06-17T16:44:13.952Z,27.02
2023-06-17T16:49:16.931Z,27.13
2023-06-17T16:54:21.168Z,28.99
2023-06-17T16:59:24.965Z,28.38
2023-06-17T17:04:28.224Z,29.51
2023-06-17T17:09:32.504Z,30.38
2023-06-17T17:14:35.891Z,32.29
2023-06-17T17:19:38.759Z,33.12
2023-06-17T17:24:44.034Z,33.71
2023-06-17T17:29:47.488Z,36.19
2023-06-17T17:34:50.377Z,37.48
2023-06-17T17:39:54.673Z,39.23
2023-06-17T17:44:57.522Z,39.73
2023-06-17T17:50:00.317Z,41.36
2023-06-17T17:55:04.730Z,41.48
2023-06-17T18:00:09.533Z,41.44
2023-06-17T18:05:19.297Z,41.26
2023-06-17T18:10:23.966Z,41.69
2023-06-17T18:15:27.090Z,42.06
2023-06-17T18:20:29.898Z,43.40
2023-06-17T18:25:34.105Z,44.52
2023-06-17T18:30:36.979Z,45.83
2023-06-17T18:35:39.847Z,46.88
2023-06-17T18:40:44.015Z,47.78
2023-06-17T18:45:46.844Z,48.57
2023-06-17T18:50:50.033Z,49.81
2023-06-17T18:55:54.228Z,51.24
2023-06-17T19:00:57.190Z,51.82
2023-06-17T19:06:00.185Z,52.26
2023-06-17T19:11:04.501Z,53.06
2023-06-17T19:16:07.648Z,54.47
2023-06-17T19:21:10.895Z,55.60
2023-06-17T19:26:15.727Z,56.28
2023-06-17T19:31:22.098Z,57.34
2023-06-17T19:36:25.136Z,58.57
2023-06-17T19:41:30.595Z,59.57
2023-06-17T19:46:33.379Z,60.81
2023-06-17T19:51:36.274Z,61.54
2023-06-17T19:56:40.664Z,62.14
2023-06-17T20:01:43.714Z,62.58
2023-06-17T20:06:46.498Z,62.96
2023-06-17T20:11:51.471Z,64.04
2023-06-17T20:16:54.828Z,64.28
2023-06-17T20:21:57.660Z,65.09
2023-06-17T20:27:01.962Z,66.07
2023-06-17T20:32:05.388Z,67.10
2023-06-17T20:37:08.182Z,67.53
2023-06-17T20:42:13.110Z,67.04
2023-06-17T20:47:16.275Z,67.50
2023-06-17T20:52:19.166Z,67.82
2023-06-17T20:57:23.598Z,67.27
2023-06-17T21:02:26.558Z,67.45
2023-06-17T21:07:29.442Z,67.82
2023-06-17T21:12:33.895Z,68.47
2023-06-17T21:17:37.349Z,68.46
2023-06-17T21:22:40.289Z,69.39
2023-06-17T21:27:44.590Z,70.66
2023-06-17T21:32:47.436Z,71.02
2023-06-17T21:37:50.281Z,70.36
2023-06-17T21:42:54.430Z,71.09
2023-06-17T21:47:57.272Z,72.20
2023-06-17T21:53:00.119Z,72.56
2023-06-17T21:58:04.345Z,72.26
2023-06-17T22:03:07.154Z,72.78
2023-06-17T22:08:10.186Z,72.55
2023-06-17T22:13:14.323Z,73.12
2023-06-17T22:18:17.517Z,74.08
2023-06-17T22:23:20.980Z,72.74
2023-06-17T22:28:25.166Z,72.63
2023-06-17T22:33:27.912Z,72.66
2023-06-17T22:38:30.722Z,73.08
2023-06-17T22:43:34.900Z,73.54
2023-06-17T22:48:37.744Z,74.59
2023-06-17T22:53:40.634Z,74.23
2023-06-17T22:58:45.846Z,74.75
2023-06-17T23:03:48.626Z,74.03
2023-06-17T23:08:51.589Z,75.43
2023-06-17T23:13:55.827Z,74.78
2023-06-17T23:18:58.591Z,75.27
2023-06-17T23:24:01.517Z,75.89
2023-06-17T23:29:06.943Z,76.05
2023-06-17T23:34:10.202Z,77.14
2023-06-17T23:39:13.594Z,77.07
2023-06-17T23:44:18.673Z,76.41
2023-06-17T23:49:21.453Z,76.23
2023-06-17T23:54:24.298Z,76.78
2023-06-17T23:59:30.667Z,76.66
